MSC Poh Lin — H8FC — position and weather

sailwx.info

Track history (hours):
 
Tides and Currents Weather Stations Pressure Air Temp Water Temp Dewpoint Dewpoint Depression Visibility Wind Speed Wind Dir Waves Ship Positions

MSC Poh Lin

Last reported at 2016-Aug-27 00:33 UTC. Time now 2016-Aug-27 01:15 UTC.
Position N 38°59' W 124°14'.

Length 294 m; draft 8.6 m.

Type: Ship (hazmat cat A). MMSI: 357405000.

Date/timePositionNaut miles runAvg speedWind from/ knotsBaromVisibWave heightAir tempDewpointWater temp
2016-Aug-27 00:33N 38°59' W 124°14'25712.8
2016-Aug-26 04:28N 43°11' W 125°21'1212.9
2016-Aug-26 03:33N 43°23' W 125°22'1313.5
2016-Aug-26 02:34N 43°36' W 125°21'1413.8
2016-Aug-26 01:33N 43°50' W 125°21'1414.1
2016-Aug-26 00:34N 44°04' W 125°22'1414.3
2016-Aug-25 23:33N 44°19' W 125°21'1413.5
2016-Aug-25 22:33N 44°32' W 125°19'1513.6
2016-Aug-25 21:28N 44°47' W 125°16'1213.5
2016-Aug-25 20:33N 44°59' W 125°13'1313.3
2016-Aug-25 19:33N 45°12' W 125°11'1413.5
2016-Aug-25 18:33N 45°25' W 125°15'1413.6
2016-Aug-25 17:33N 45°38' W 125°20'1313.0
2016-Aug-25 16:33N 45°51' W 125°23'1413.7
2016-Aug-25 15:34N 46°05' W 125°23'1514.8
2016-Aug-25 14:33N 46°20' W 125°23'1514.8
2016-Aug-25 13:34N 46°35' W 125°24'1514.7
2016-Aug-25 12:34N 46°49' W 125°24'1514.7
2016-Aug-25 11:34N 47°04' W 125°24'1514.5
2016-Aug-25 10:34N 47°19' W 125°24'1414.1
2016-Aug-25 09:34N 47°33' W 125°25'1414.4
2016-Aug-25 08:34N 47°47' W 125°24'1414.3
2016-Aug-25 07:34N 48°01' W 125°20'1514.8
2016-Aug-25 06:33N 48°15' W 125°14'2512.6
2016-Aug-25 04:34N 48°31' W 124°44'1414.4
2016-Aug-25 03:33N 48°26' W 124°24'1413.5
2016-Aug-25 02:33N 48°20' W 124°05'1413.8
2016-Aug-25 01:34N 48°16' W 123°45'1413.9
2016-Aug-25 00:33N 48°11' W 123°25'1414.0
2016-Aug-24 23:33N 48°13' W 123°05'1918.8
2016-Aug-24 22:33N 48°05' W 122°39'1919.5
2016-Aug-24 21:34N 47°47' W 122°26'1212.0
2016-Aug-24 20:33N 47°36' W 122°21'0 0.4
2016-Aug-24 19:33N 47°36' W 122°21'0 0.0
2016-Aug-24 18:33N 47°36' W 122°21'0 0.0
2016-Aug-24 17:33N 47°36' W 122°21'0 0.0
2016-Aug-24 16:33N 47°36' W 122°21'0 0.0
2016-Aug-24 15:33N 47°36' W 122°21'0 0.0
2016-Aug-24 14:33N 47°36' W 122°21'0 0.0
2016-Aug-24 13:30N 47°36' W 122°21'0 0.0
2016-Aug-24 12:33N 47°36' W 122°21'0 0.0
2016-Aug-24 11:33N 47°36' W 122°21'0 0.0
2016-Aug-24 10:33N 47°36' W 122°21'0 0.0
2016-Aug-24 09:33N 47°36' W 122°21'0 0.0
2016-Aug-24 08:33N 47°36' W 122°21'0 0.0
2016-Aug-24 07:33N 47°36' W 122°21'0 0.0
2016-Aug-24 06:33N 47°36' W 122°21'0 0.0
2016-Aug-24 04:33N 47°36' W 122°21'0 0.0
2016-Aug-24 03:33N 47°36' W 122°21'0 0.0
2016-Aug-24 02:33N 47°36' W 122°21'0 0.0
2016-Aug-24 01:27N 47°36' W 122°21'0 0.1
2016-Aug-24 00:33N 47°36' W 122°21'5 4.8
2016-Aug-23 23:33N 47°38' W 122°27'1716.8
2016-Aug-23 22:33N 47°55' W 122°30'1918.4
2016-Aug-23 21:33N 48°10' W 122°46'1918.5
2016-Aug-23 20:33N 48°12' W 123°13'1111.1
2016-Aug-23 19:33N 48°12' W 123°30'1212.1
2016-Aug-23 18:33N 48°23' W 123°21'1312.7
2016-Aug-23 17:34N 48°35' W 123°14'1413.6
2016-Aug-23 16:34N 48°46' W 123°03'1414.0
2016-Aug-23 15:33N 48°60' W 123°09'1 1.3
2016-Aug-23 14:29N 49°01' W 123°09'0 0.0
2016-Aug-23 13:32N 49°01' W 123°09'0 0.0
2016-Aug-23 12:32N 49°01' W 123°09'0 0.0
2016-Aug-23 11:32N 49°01' W 123°09'0 0.0
2016-Aug-23 10:32N 49°01' W 123°09'0 0.0
2016-Aug-23 09:32N 49°01' W 123°09'0 0.0
2016-Aug-23 08:32N 49°01' W 123°09'0 0.0
2016-Aug-23 07:32N 49°01' W 123°09'0 0.0
2016-Aug-23 06:32N 49°01' W 123°09'0 0.0
2016-Aug-23 05:32N 49°01' W 123°09'0 0.0
2016-Aug-23 04:33N 49°01' W 123°09'0 0.0
2016-Aug-23 03:32N 49°01' W 123°09'0 0.0
2016-Aug-23 02:32N 49°01' W 123°09'0 0.0
2016-Aug-23 01:32N 49°01' W 123°09'0 0.0
2016-Aug-23 00:32N 49°01' W 123°09'0 0.0
2016-Aug-22 23:32N 49°01' W 123°09'0 0.0
2016-Aug-22 22:33N 49°01' W 123°09'6 6.0
2016-Aug-22 21:33N 48°56' W 123°05'1414.0
2016-Aug-22 20:33N 48°43' W 123°13'1817.9
2016-Aug-22 19:33N 48°25' W 123°11'1111.1
2016-Aug-22 18:33N 48°19' W 123°25'1110.5
2016-Aug-22 17:33N 48°13' W 123°38'1212.2
2016-Aug-22 16:33N 48°14' W 123°57'1212.4
2016-Aug-22 15:33N 48°19' W 124°13'1212.4
2016-Aug-22 14:33N 48°24' W 124°30'1212.5
2016-Aug-22 13:33N 48°29' W 124°48'1111.4
2016-Aug-22 12:33N 48°24' W 125°04'1615.9
2016-Aug-22 11:32N 48°08' W 125°11'2120.4
2016-Aug-22 10:30N 47°48' W 125°20'2820.0
2016-Aug-22 09:05N 47°20' W 125°18'1120.2
2016-Aug-22 08:34N 47°09' W 125°18'2020.1
2016-Aug-22 07:33N 46°49' W 125°17'1919.5
2016-Aug-22 06:33N 46°30' W 125°15'1919.1
2016-Aug-22 05:33N 46°10' W 125°13'1919.4
2016-Aug-22 04:34N 45°51' W 125°12'1919.4
2016-Aug-22 03:34N 45°32' W 125°10'1919.2
2016-Aug-22 02:33N 45°13' W 125°12'2019.7
2016-Aug-22 01:33N 44°53' W 125°11'2020.0
2016-Aug-22 00:33N 44°33' W 125°10'2020.5
2016-Aug-21 23:33N 44°12' W 125°09'2020.2
2016-Aug-21 22:33N 43°52' W 125°08'2620.3
2016-Aug-21 21:16N 43°26' W 125°06'1620.7
2016-Aug-21 20:30N 43°10' W 125°06'26120.2
2016-Aug-21 07:33N 38°53' W 124°04'2120.8
2016-Aug-21 06:33N 38°37' W 123°47'2020.4
2016-Aug-21 05:34N 38°22' W 123°30'1817.5
2016-Aug-21 04:33N 38°07' W 123°18'10 9.9
2016-Aug-21 03:33N 37°60' W 123°10'1010.1
2016-Aug-21 02:33N 37°54' W 122°59'1010.1
2016-Aug-21 01:33N 37°49' W 122°48'1010.1
2016-Aug-21 00:33N 37°47' W 122°35'1312.5
2016-Aug-20 23:33N 37°48' W 122°20'2 1.6
2016-Aug-20 22:33N 37°48' W 122°17'1 1.2
2016-Aug-20 21:33N 37°48' W 122°19'0 0.0
2016-Aug-20 20:33N 37°48' W 122°19'0 0.0
2016-Aug-20 19:33N 37°48' W 122°19'0 0.0
2016-Aug-20 18:33N 37°48' W 122°19'0 0.0
2016-Aug-20 17:33N 37°48' W 122°19'0 0.0
2016-Aug-20 16:33N 37°48' W 122°19'0 0.0
2016-Aug-20 15:33N 37°48' W 122°19'0 0.0
2016-Aug-20 14:33N 37°48' W 122°19'0 0.0
2016-Aug-20 13:33N 37°48' W 122°19'6 6.4
2016-Aug-20 12:34N 37°49' W 122°27'1211.5
2016-Aug-20 11:34N 37°44' W 122°40'6 6.3
2016-Aug-20 10:34N 37°38' W 122°40'8 7.8
2016-Aug-20 09:34N 37°30' W 122°40'8 8.4
2016-Aug-20 08:34N 37°22' W 122°40'10 9.7
2016-Aug-20 07:34N 37°12' W 122°37'1110.8
2016-Aug-20 06:34N 37°02' W 122°33'1110.8
2016-Aug-20 05:34N 36°51' W 122°30'1312.6
2016-Aug-20 04:34N 36°39' W 122°25'1312.9
2016-Aug-20 03:34N 36°27' W 122°19'1212.5
2016-Aug-20 02:34N 36°16' W 122°14'1312.5
2016-Aug-20 01:34N 36°04' W 122°08'1312.7
2016-Aug-20 00:34N 35°52' W 122°03'1312.7
2016-Aug-19 23:34N 35°41' W 121°56'1312.8
2016-Aug-19 22:33N 35°30' W 121°47'1312.8
2016-Aug-19 21:34N 35°20' W 121°38'1312.7
2016-Aug-19 20:34N 35°09' W 121°29'1312.4
2016-Aug-19 19:33N 34°59' W 121°20'1212.5
2016-Aug-19 18:34N 34°49' W 121°11'1312.7
2016-Aug-19 17:34N 34°39' W 121°02'4510.4
2016-Aug-19 13:17N 34°18' W 120°15'10 9.9
2016-Aug-19 12:15N 34°15' W 120°03'7 9.8
2016-Aug-19 11:34N 34°13' W 119°55'10 9.7
2016-Aug-19 10:32N 34°10' W 119°43'10 9.8
2016-Aug-19 09:33N 34°08' W 119°32'10 9.9
2016-Aug-19 08:34N 34°05' W 119°21'10 9.9
2016-Aug-19 07:33N 34°01' W 119°10'10 9.9
2016-Aug-19 06:33N 33°56' W 118°60'1010.0
2016-Aug-19 05:33N 33°52' W 118°49'10 9.8
2016-Aug-19 04:33N 33°46' W 118°39'10 9.8
2016-Aug-19 03:33N 33°42' W 118°28'10 9.7
2016-Aug-19 02:33N 33°38' W 118°17'7 7.4
2016-Aug-19 01:34N 33°44' W 118°12'3 2.6
2016-Aug-19 00:33N 33°46' W 118°14'0 0.0
2016-Aug-18 23:31N 33°46' W 118°14'0 0.0
2016-Aug-18 22:31N 33°46' W 118°14'0 0.0
2016-Aug-18 21:31N 33°46' W 118°14'0 0.0
2016-Aug-18 20:31N 33°46' W 118°14'0 0.0
2016-Aug-18 19:31N 33°46' W 118°14'0 0.0
2016-Aug-18 18:13N 33°46' W 118°14'0 0.0
2016-Aug-18 17:25N 33°46' W 118°14'0 0.0
2016-Aug-18 16:16N 33°46' W 118°14'0 0.0
2016-Aug-18 15:31N 33°46' W 118°14'0 0.0
2016-Aug-18 14:31N 33°46' W 118°14'0 0.0
2016-Aug-18 13:31N 33°46' W 118°14'0 0.0
2016-Aug-18 12:31N 33°46' W 118°14'0 0.0
2016-Aug-18 11:25N 33°46' W 118°14'0 0.0
2016-Aug-18 10:31N 33°46' W 118°14'0 0.0
2016-Aug-18 09:31N 33°46' W 118°14'0 0.0
2016-Aug-18 08:25N 33°46' W 118°14'0 0.0
2016-Aug-18 07:28N 33°46' W 118°14'0 0.0
2016-Aug-18 06:28N 33°46' W 118°14'0 0.0
2016-Aug-18 05:31N 33°46' W 118°14'0 0.0
2016-Aug-18 04:25N 33°46' W 118°14'0 0.0
2016-Aug-18 03:19N 33°46' W 118°14'0 0.0
2016-Aug-18 02:31N 33°46' W 118°14'0 0.0
2016-Aug-18 01:31N 33°46' W 118°14'0 0.0
2016-Aug-18 00:22N 33°46' W 118°14'0 0.0
2016-Aug-17 23:28N 33°46' W 118°14'0 0.0
2016-Aug-17 22:31N 33°46' W 118°14'0 0.0
2016-Aug-17 21:31N 33°46' W 118°14'0 0.0
2016-Aug-17 20:28N 33°46' W 118°14'0 0.0
2016-Aug-17 19:31N 33°46' W 118°14'0 0.0
2016-Aug-17 18:31N 33°46' W 118°14'0 0.0
2016-Aug-17 17:22N 33°46' W 118°14'0 0.0
2016-Aug-17 16:31N 33°46' W 118°14'0 0.0
2016-Aug-17 15:22N 33°46' W 118°14'0 0.0
2016-Aug-17 14:31N 33°46' W 118°14'0 0.0
2016-Aug-17 13:31N 33°46' W 118°14'0 0.4
2016-Aug-17 12:31N 33°46' W 118°13'5 5.2
2016-Aug-17 11:33N 33°42' W 118°11'6 6.0
2016-Aug-17 10:33N 33°36' W 118°09'7 7.5
2016-Aug-17 09:33N 33°29' W 118°07'9 8.9
2016-Aug-17 08:33N 33°20' W 118°03'1010.3
2016-Aug-17 07:33N 33°11' W 117°59'1111.0
2016-Aug-17 06:34N 33°00' W 117°55'1818.0
2016-Aug-17 05:34N 32°43' W 117°49'1818.0
2016-Aug-17 04:33N 32°26' W 117°42'1817.8
2016-Aug-17 03:33N 32°09' W 117°35'1717.2
2016-Aug-17 02:34N 31°53' W 117°29'1717.3
2016-Aug-17 01:33N 31°36' W 117°22'1717.3
2016-Aug-17 00:33N 31°20' W 117°16'  
Track history (hours):
 
Tides and Currents Weather Stations Pressure Air Temp Water Temp Dewpoint Dewpoint Depression Visibility Wind Speed Wind Dir Waves Ship Positions

MSC Poh Lin

Last reported at 2016-Aug-27 00:33 UTC. Time now 2016-Aug-27 01:15 UTC.
Position N 38°59' W 124°14'.

Length 294 m; draft 8.6 m.

Type: Ship (hazmat cat A). MMSI: 357405000.

Date/timePositionNaut miles runAvg speedWind from/ knotsBaromVisibWave heightAir tempDewpointWater temp
2016-Aug-27 00:33N 38°59' W 124°14'25712.8
2016-Aug-26 04:28N 43°11' W 125°21'1212.9
2016-Aug-26 03:33N 43°23' W 125°22'1313.5
2016-Aug-26 02:34N 43°36' W 125°21'1413.8
2016-Aug-26 01:33N 43°50' W 125°21'1414.1
2016-Aug-26 00:34N 44°04' W 125°22'1414.3
2016-Aug-25 23:33N 44°19' W 125°21'1413.5
2016-Aug-25 22:33N 44°32' W 125°19'1513.6
2016-Aug-25 21:28N 44°47' W 125°16'1213.5
2016-Aug-25 20:33N 44°59' W 125°13'1313.3
2016-Aug-25 19:33N 45°12' W 125°11'1413.5
2016-Aug-25 18:33N 45°25' W 125°15'1413.6
2016-Aug-25 17:33N 45°38' W 125°20'1313.0
2016-Aug-25 16:33N 45°51' W 125°23'1413.7
2016-Aug-25 15:34N 46°05' W 125°23'1514.8
2016-Aug-25 14:33N 46°20' W 125°23'1514.8
2016-Aug-25 13:34N 46°35' W 125°24'1514.7
2016-Aug-25 12:34N 46°49' W 125°24'1514.7
2016-Aug-25 11:34N 47°04' W 125°24'1514.5
2016-Aug-25 10:34N 47°19' W 125°24'1414.1
2016-Aug-25 09:34N 47°33' W 125°25'1414.4
2016-Aug-25 08:34N 47°47' W 125°24'1414.3
2016-Aug-25 07:34N 48°01' W 125°20'1514.8
2016-Aug-25 06:33N 48°15' W 125°14'2512.6
2016-Aug-25 04:34N 48°31' W 124°44'1414.4
2016-Aug-25 03:33N 48°26' W 124°24'1413.5
2016-Aug-25 02:33N 48°20' W 124°05'1413.8
2016-Aug-25 01:34N 48°16' W 123°45'1413.9
2016-Aug-25 00:33N 48°11' W 123°25'1414.0
2016-Aug-24 23:33N 48°13' W 123°05'1918.8
2016-Aug-24 22:33N 48°05' W 122°39'1919.5
2016-Aug-24 21:34N 47°47' W 122°26'1212.0
2016-Aug-24 20:33N 47°36' W 122°21'0 0.4
2016-Aug-24 19:33N 47°36' W 122°21'0 0.0
2016-Aug-24 18:33N 47°36' W 122°21'0 0.0
2016-Aug-24 17:33N 47°36' W 122°21'0 0.0
2016-Aug-24 16:33N 47°36' W 122°21'0 0.0
2016-Aug-24 15:33N 47°36' W 122°21'0 0.0
2016-Aug-24 14:33N 47°36' W 122°21'0 0.0
2016-Aug-24 13:30N 47°36' W 122°21'0 0.0
2016-Aug-24 12:33N 47°36' W 122°21'0 0.0
2016-Aug-24 11:33N 47°36' W 122°21'0 0.0
2016-Aug-24 10:33N 47°36' W 122°21'0 0.0
2016-Aug-24 09:33N 47°36' W 122°21'0 0.0
2016-Aug-24 08:33N 47°36' W 122°21'0 0.0
2016-Aug-24 07:33N 47°36' W 122°21'0 0.0
2016-Aug-24 06:33N 47°36' W 122°21'0 0.0
2016-Aug-24 04:33N 47°36' W 122°21'0 0.0
2016-Aug-24 03:33N 47°36' W 122°21'0 0.0
2016-Aug-24 02:33N 47°36' W 122°21'0 0.0
2016-Aug-24 01:27N 47°36' W 122°21'0 0.1
2016-Aug-24 00:33N 47°36' W 122°21'5 4.8
2016-Aug-23 23:33N 47°38' W 122°27'1716.8
2016-Aug-23 22:33N 47°55' W 122°30'1918.4
2016-Aug-23 21:33N 48°10' W 122°46'1918.5
2016-Aug-23 20:33N 48°12' W 123°13'1111.1
2016-Aug-23 19:33N 48°12' W 123°30'1212.1
2016-Aug-23 18:33N 48°23' W 123°21'1312.7
2016-Aug-23 17:34N 48°35' W 123°14'1413.6
2016-Aug-23 16:34N 48°46' W 123°03'1414.0
2016-Aug-23 15:33N 48°60' W 123°09'1 1.3
2016-Aug-23 14:29N 49°01' W 123°09'0 0.0
2016-Aug-23 13:32N 49°01' W 123°09'0 0.0
2016-Aug-23 12:32N 49°01' W 123°09'0 0.0
2016-Aug-23 11:32N 49°01' W 123°09'0 0.0
2016-Aug-23 10:32N 49°01' W 123°09'0 0.0
2016-Aug-23 09:32N 49°01' W 123°09'0 0.0
2016-Aug-23 08:32N 49°01' W 123°09'0 0.0
2016-Aug-23 07:32N 49°01' W 123°09'0 0.0
2016-Aug-23 06:32N 49°01' W 123°09'0 0.0
2016-Aug-23 05:32N 49°01' W 123°09'0 0.0
2016-Aug-23 04:33N 49°01' W 123°09'0 0.0
2016-Aug-23 03:32N 49°01' W 123°09'0 0.0
2016-Aug-23 02:32N 49°01' W 123°09'0 0.0
2016-Aug-23 01:32N 49°01' W 123°09'0 0.0
2016-Aug-23 00:32N 49°01' W 123°09'0 0.0
2016-Aug-22 23:32N 49°01' W 123°09'0 0.0
2016-Aug-22 22:33N 49°01' W 123°09'6 6.0
2016-Aug-22 21:33N 48°56' W 123°05'1414.0
2016-Aug-22 20:33N 48°43' W 123°13'1817.9
2016-Aug-22 19:33N 48°25' W 123°11'1111.1
2016-Aug-22 18:33N 48°19' W 123°25'1110.5
2016-Aug-22 17:33N 48°13' W 123°38'1212.2
2016-Aug-22 16:33N 48°14' W 123°57'1212.4
2016-Aug-22 15:33N 48°19' W 124°13'1212.4
2016-Aug-22 14:33N 48°24' W 124°30'1212.5
2016-Aug-22 13:33N 48°29' W 124°48'1111.4
2016-Aug-22 12:33N 48°24' W 125°04'1615.9
2016-Aug-22 11:32N 48°08' W 125°11'2120.4
2016-Aug-22 10:30N 47°48' W 125°20'2820.0
2016-Aug-22 09:05N 47°20' W 125°18'1120.2
2016-Aug-22 08:34N 47°09' W 125°18'2020.1
2016-Aug-22 07:33N 46°49' W 125°17'1919.5
2016-Aug-22 06:33N 46°30' W 125°15'1919.1
2016-Aug-22 05:33N 46°10' W 125°13'1919.4
2016-Aug-22 04:34N 45°51' W 125°12'1919.4
2016-Aug-22 03:34N 45°32' W 125°10'1919.2
2016-Aug-22 02:33N 45°13' W 125°12'2019.7
2016-Aug-22 01:33N 44°53' W 125°11'2020.0
2016-Aug-22 00:33N 44°33' W 125°10'2020.5
2016-Aug-21 23:33N 44°12' W 125°09'2020.2
2016-Aug-21 22:33N 43°52' W 125°08'2620.3
2016-Aug-21 21:16N 43°26' W 125°06'1620.7
2016-Aug-21 20:30N 43°10' W 125°06'26120.2
2016-Aug-21 07:33N 38°53' W 124°04'2120.8
2016-Aug-21 06:33N 38°37' W 123°47'2020.4
2016-Aug-21 05:34N 38°22' W 123°30'1817.5
2016-Aug-21 04:33N 38°07' W 123°18'10 9.9
2016-Aug-21 03:33N 37°60' W 123°10'1010.1
2016-Aug-21 02:33N 37°54' W 122°59'1010.1
2016-Aug-21 01:33N 37°49' W 122°48'1010.1
2016-Aug-21 00:33N 37°47' W 122°35'1312.5
2016-Aug-20 23:33N 37°48' W 122°20'2 1.6
2016-Aug-20 22:33N 37°48' W 122°17'1 1.2
2016-Aug-20 21:33N 37°48' W 122°19'0 0.0
2016-Aug-20 20:33N 37°48' W 122°19'0 0.0
2016-Aug-20 19:33N 37°48' W 122°19'0 0.0
2016-Aug-20 18:33N 37°48' W 122°19'0 0.0
2016-Aug-20 17:33N 37°48' W 122°19'0 0.0
2016-Aug-20 16:33N 37°48' W 122°19'0 0.0
2016-Aug-20 15:33N 37°48' W 122°19'0 0.0
2016-Aug-20 14:33N 37°48' W 122°19'0 0.0
2016-Aug-20 13:33N 37°48' W 122°19'6 6.4
2016-Aug-20 12:34N 37°49' W 122°27'1211.5
2016-Aug-20 11:34N 37°44' W 122°40'6 6.3
2016-Aug-20 10:34N 37°38' W 122°40'8 7.8
2016-Aug-20 09:34N 37°30' W 122°40'8 8.4
2016-Aug-20 08:34N 37°22' W 122°40'10 9.7
2016-Aug-20 07:34N 37°12' W 122°37'1110.8
2016-Aug-20 06:34N 37°02' W 122°33'1110.8
2016-Aug-20 05:34N 36°51' W 122°30'1312.6
2016-Aug-20 04:34N 36°39' W 122°25'1312.9
2016-Aug-20 03:34N 36°27' W 122°19'1212.5
2016-Aug-20 02:34N 36°16' W 122°14'1312.5
2016-Aug-20 01:34N 36°04' W 122°08'1312.7
2016-Aug-20 00:34N 35°52' W 122°03'1312.7
2016-Aug-19 23:34N 35°41' W 121°56'1312.8
2016-Aug-19 22:33N 35°30' W 121°47'1312.8
2016-Aug-19 21:34N 35°20' W 121°38'1312.7
2016-Aug-19 20:34N 35°09' W 121°29'1312.4
2016-Aug-19 19:33N 34°59' W 121°20'1212.5
2016-Aug-19 18:34N 34°49' W 121°11'1312.7
2016-Aug-19 17:34N 34°39' W 121°02'4510.4
2016-Aug-19 13:17N 34°18' W 120°15'10 9.9
2016-Aug-19 12:15N 34°15' W 120°03'7 9.8
2016-Aug-19 11:34N 34°13' W 119°55'10 9.7
2016-Aug-19 10:32N 34°10' W 119°43'10 9.8
2016-Aug-19 09:33N 34°08' W 119°32'10 9.9
2016-Aug-19 08:34N 34°05' W 119°21'10 9.9
2016-Aug-19 07:33N 34°01' W 119°10'10 9.9
2016-Aug-19 06:33N 33°56' W 118°60'1010.0
2016-Aug-19 05:33N 33°52' W 118°49'10 9.8
2016-Aug-19 04:33N 33°46' W 118°39'10 9.8
2016-Aug-19 03:33N 33°42' W 118°28'10 9.7
2016-Aug-19 02:33N 33°38' W 118°17'7 7.4
2016-Aug-19 01:34N 33°44' W 118°12'3 2.6
2016-Aug-19 00:33N 33°46' W 118°14'0 0.0
2016-Aug-18 23:31N 33°46' W 118°14'0 0.0
2016-Aug-18 22:31N 33°46' W 118°14'0 0.0
2016-Aug-18 21:31N 33°46' W 118°14'0 0.0
2016-Aug-18 20:31N 33°46' W 118°14'0 0.0
2016-Aug-18 19:31N 33°46' W 118°14'0 0.0
2016-Aug-18 18:13N 33°46' W 118°14'0 0.0
2016-Aug-18 17:25N 33°46' W 118°14'0 0.0
2016-Aug-18 16:16N 33°46' W 118°14'0 0.0
2016-Aug-18 15:31N 33°46' W 118°14'0 0.0
2016-Aug-18 14:31N 33°46' W 118°14'0 0.0
2016-Aug-18 13:31N 33°46' W 118°14'0 0.0
2016-Aug-18 12:31N 33°46' W 118°14'0 0.0
2016-Aug-18 11:25N 33°46' W 118°14'0 0.0
2016-Aug-18 10:31N 33°46' W 118°14'0 0.0
2016-Aug-18 09:31N 33°46' W 118°14'0 0.0
2016-Aug-18 08:25N 33°46' W 118°14'0 0.0
2016-Aug-18 07:28N 33°46' W 118°14'0 0.0
2016-Aug-18 06:28N 33°46' W 118°14'0 0.0
2016-Aug-18 05:31N 33°46' W 118°14'0 0.0
2016-Aug-18 04:25N 33°46' W 118°14'0 0.0
2016-Aug-18 03:19N 33°46' W 118°14'0 0.0
2016-Aug-18 02:31N 33°46' W 118°14'0 0.0
2016-Aug-18 01:31N 33°46' W 118°14'0 0.0
2016-Aug-18 00:22N 33°46' W 118°14'0 0.0
2016-Aug-17 23:28N 33°46' W 118°14'0 0.0
2016-Aug-17 22:31N 33°46' W 118°14'0 0.0
2016-Aug-17 21:31N 33°46' W 118°14'0 0.0
2016-Aug-17 20:28N 33°46' W 118°14'0 0.0
2016-Aug-17 19:31N 33°46' W 118°14'0 0.0
2016-Aug-17 18:31N 33°46' W 118°14'0 0.0
2016-Aug-17 17:22N 33°46' W 118°14'0 0.0
2016-Aug-17 16:31N 33°46' W 118°14'0 0.0
2016-Aug-17 15:22N 33°46' W 118°14'0 0.0
2016-Aug-17 14:31N 33°46' W 118°14'0 0.0
2016-Aug-17 13:31N 33°46' W 118°14'0 0.4
2016-Aug-17 12:31N 33°46' W 118°13'5 5.2
2016-Aug-17 11:33N 33°42' W 118°11'6 6.0
2016-Aug-17 10:33N 33°36' W 118°09'7 7.5
2016-Aug-17 09:33N 33°29' W 118°07'9 8.9
2016-Aug-17 08:33N 33°20' W 118°03'1010.3
2016-Aug-17 07:33N 33°11' W 117°59'1111.0
2016-Aug-17 06:34N 33°00' W 117°55'1818.0
2016-Aug-17 05:34N 32°43' W 117°49'1818.0
2016-Aug-17 04:33N 32°26' W 117°42'1817.8
2016-Aug-17 03:33N 32°09' W 117°35'1717.2
2016-Aug-17 02:34N 31°53' W 117°29'1717.3
2016-Aug-17 01:33N 31°36' W 117°22'1717.3
2016-Aug-17 00:33N 31°20' W 117°16'  

Dump ship's entire track history